createdAt,value
2018-07-08T00:00:56.598Z,1016.74
2018-07-08T00:01:56.560Z,1016.77
2018-07-08T00:02:56.993Z,1016.75
2018-07-08T00:03:56.514Z,1016.74
2018-07-08T00:04:56.479Z,1016.71
2018-07-08T00:05:57.394Z,1016.74
2018-07-08T00:06:56.432Z,1016.72
2018-07-08T00:07:56.456Z,1016.73
2018-07-08T00:08:56.388Z,1016.71
2018-07-08T00:09:56.354Z,1016.71
2018-07-08T00:10:56.332Z,1016.70
2018-07-08T00:11:56.302Z,1016.66
2018-07-08T00:12:56.328Z,1016.70
2018-07-08T00:13:56.312Z,1016.66
2018-07-08T00:14:56.230Z,1016.65
2018-07-08T00:15:56.205Z,1016.70
2018-07-08T00:16:56.900Z,1016.68
2018-07-08T00:17:56.156Z,1016.63
2018-07-08T00:18:56.176Z,1016.73
2018-07-08T00:19:56.113Z,1016.64
2018-07-08T00:20:56.078Z,1016.64
2018-07-08T00:21:56.897Z,1016.67
2018-07-08T00:22:56.029Z,1016.69
2018-07-08T00:23:56.059Z,1016.68
2018-07-08T00:24:55.981Z,1016.67
2018-07-08T00:25:55.954Z,1016.70
2018-07-08T00:26:56.898Z,1016.64
2018-07-08T00:27:55.904Z,1016.72
2018-07-08T00:28:55.921Z,1016.69
2018-07-08T00:29:55.851Z,1016.68
2018-07-08T00:30:55.826Z,1016.70
2018-07-08T00:31:55.949Z,1016.73
2018-07-08T00:32:55.793Z,1016.70
2018-07-08T00:33:55.751Z,1016.71
2018-07-08T00:34:55.742Z,1016.70
2018-07-08T00:35:55.700Z,1016.69
2018-07-08T00:36:55.962Z,1016.72
2018-07-08T00:37:55.649Z,1016.72
2018-07-08T00:38:55.655Z,1016.68
2018-07-08T00:39:56.036Z,1016.71
2018-07-08T00:40:55.576Z,1016.73
2018-07-08T00:41:55.593Z,1016.73
2018-07-08T00:42:55.542Z,1016.76
2018-07-08T00:43:56.401Z,1016.72
2018-07-08T00:44:55.557Z,1016.75
2018-07-08T00:45:55.450Z,1016.75
2018-07-08T00:46:55.425Z,1016.73
2018-07-08T00:47:55.476Z,1016.73
2018-07-08T00:48:55.386Z,1016.76
2018-07-08T00:49:55.354Z,1016.73
2018-07-08T00:50:55.362Z,1016.74
2018-07-08T00:51:55.455Z,1016.76
2018-07-08T00:52:55.316Z,1016.77
2018-07-08T00:53:55.258Z,1016.80
2018-07-08T00:54:55.910Z,1016.76
2018-07-08T00:55:55.203Z,1016.80
2018-07-08T00:56:55.216Z,1016.74
2018-07-08T00:57:55.464Z,1016.73
2018-07-08T00:58:55.164Z,1016.70
2018-07-08T00:59:55.919Z,1016.71
2018-07-08T01:00:55.083Z,1016.70
2018-07-08T01:01:55.459Z,1016.71
2018-07-08T01:02:55.017Z,1016.69
2018-07-08T01:03:55.034Z,1016.73
2018-07-08T01:04:54.977Z,1016.67
2018-07-08T01:05:54.945Z,1016.70
2018-07-08T01:06:55.906Z,1016.66
2018-07-08T01:07:54.943Z,1016.69
2018-07-08T01:08:54.873Z,1016.70
2018-07-08T01:09:54.838Z,1016.68
2018-07-08T01:10:55.449Z,1016.69
2018-07-08T01:11:54.831Z,1016.68
2018-07-08T01:12:54.763Z,1016.68
2018-07-08T01:13:55.412Z,1016.71
2018-07-08T01:14:54.715Z,1016.72
2018-07-08T01:15:55.409Z,1016.71
2018-07-08T01:16:54.703Z,1016.71
2018-07-08T01:17:55.408Z,1016.73
2018-07-08T01:18:54.653Z,1016.70
2018-07-08T01:19:54.592Z,1016.75
2018-07-08T01:20:54.602Z,1016.72
2018-07-08T01:21:54.536Z,1016.76
2018-07-08T01:22:54.504Z,1016.75
2018-07-08T01:23:54.539Z,1016.78
2018-07-08T01:24:55.412Z,1016.75
2018-07-08T01:25:54.428Z,1016.77
2018-07-08T01:26:54.401Z,1016.78
2018-07-08T01:27:54.385Z,1016.82
2018-07-08T01:28:54.401Z,1016.77
2018-07-08T01:29:54.349Z,1016.77
2018-07-08T01:30:54.301Z,1016.79
2018-07-08T01:31:54.911Z,1016.77
2018-07-08T01:32:54.253Z,1016.77
2018-07-08T01:33:54.273Z,1016.73
2018-07-08T01:34:54.466Z,1016.79
2018-07-08T01:35:54.172Z,1016.77
2018-07-08T01:36:54.151Z,1016.80
2018-07-08T01:37:54.910Z,1016.79
2018-07-08T01:38:54.097Z,1016.82
2018-07-08T01:39:54.468Z,1016.82
2018-07-08T01:40:54.045Z,1016.79
2018-07-08T01:41:54.062Z,1016.85
2018-07-08T01:42:53.995Z,1016.87
2018-07-08T01:43:54.027Z,1016.93
2018-07-08T01:44:53.956Z,1016.91
2018-07-08T01:45:54.917Z,1016.92
2018-07-08T01:46:53.892Z,1016.97
2018-07-08T01:47:53.872Z,1016.97
2018-07-08T01:48:53.968Z,1016.92
2018-07-08T01:49:53.823Z,1016.93
2018-07-08T01:50:53.852Z,1016.92
2018-07-08T01:51:53.819Z,1016.92
2018-07-08T01:52:54.421Z,1016.93
2018-07-08T01:53:55.323Z,1016.94
2018-07-08T01:54:53.969Z,1016.95
2018-07-08T01:55:53.661Z,1016.97
2018-07-08T01:56:53.640Z,1016.91
2018-07-08T01:57:54.422Z,1016.98
2018-07-08T01:58:53.630Z,1016.98
2018-07-08T01:59:53.572Z,1016.96
2018-07-08T02:00:54.416Z,1016.96
2018-07-08T02:01:53.511Z,1016.96
2018-07-08T02:02:53.970Z,1016.98
2018-07-08T02:03:53.456Z,1016.97
2018-07-08T02:04:53.436Z,1017.00
2018-07-08T02:05:53.459Z,1016.99
2018-07-08T02:06:53.384Z,1016.98
2018-07-08T02:07:53.925Z,1016.97
2018-07-08T02:08:53.378Z,1016.99
2018-07-08T02:09:53.305Z,1016.98
2018-07-08T02:10:53.289Z,1017.00
2018-07-08T02:11:53.302Z,1016.96
2018-07-08T02:12:53.225Z,1016.94
2018-07-08T02:13:53.209Z,1016.96
2018-07-08T02:14:53.183Z,1016.95
2018-07-08T02:15:53.150Z,1016.97
2018-07-08T02:16:53.171Z,1016.91
2018-07-08T02:17:53.094Z,1016.94
2018-07-08T02:18:53.071Z,1016.94
2018-07-08T02:19:53.044Z,1016.96
2018-07-08T02:20:53.064Z,1016.98
2018-07-08T02:21:52.995Z,1016.97
2018-07-08T02:22:52.965Z,1016.97
2018-07-08T02:23:52.940Z,1017.01
2018-07-08T02:24:52.959Z,1017.03
2018-07-08T02:25:52.941Z,1017.07
2018-07-08T02:26:52.862Z,1017.05
2018-07-08T02:27:52.840Z,1017.09
2018-07-08T02:28:52.812Z,1017.05
2018-07-08T02:29:52.788Z,1017.05
2018-07-08T02:30:52.818Z,1017.06
2018-07-08T02:31:53.443Z,1017.05
2018-07-08T02:32:52.715Z,1017.06
2018-07-08T02:33:52.688Z,1016.99
2018-07-08T02:34:52.659Z,1017.04
2018-07-08T02:35:53.094Z,1017.03
2018-07-08T02:36:52.602Z,1017.06
2018-07-08T02:37:52.578Z,1017.06
2018-07-08T02:38:52.557Z,1017.03
2018-07-08T02:39:52.529Z,1017.04
2018-07-08T02:40:52.547Z,1017.02
2018-07-08T02:41:52.487Z,1017.07
2018-07-08T02:42:52.447Z,1017.09
2018-07-08T02:43:52.428Z,1016.99
2018-07-08T02:44:52.440Z,1016.99
2018-07-08T02:45:52.372Z,1017.01
2018-07-08T02:46:52.391Z,1016.95
2018-07-08T02:47:52.325Z,1016.95
2018-07-08T02:48:52.292Z,1016.96
2018-07-08T02:49:52.274Z,1016.99
2018-07-08T02:50:52.287Z,1016.97
2018-07-08T02:51:52.260Z,1016.95
2018-07-08T02:52:52.192Z,1016.98
2018-07-08T02:53:52.165Z,1016.98
2018-07-08T02:54:52.151Z,1016.95
2018-07-08T02:55:52.169Z,1016.95
2018-07-08T02:56:52.159Z,1016.96
2018-07-08T02:57:52.061Z,1016.93
2018-07-08T02:58:52.035Z,1016.95
2018-07-08T02:59:52.007Z,1016.89
2018-07-08T03:00:51.994Z,1016.88
2018-07-08T03:01:51.997Z,1016.87
2018-07-08T03:02:51.932Z,1016.84
2018-07-08T03:03:51.947Z,1016.88
2018-07-08T03:04:51.881Z,1016.86
2018-07-08T03:05:51.902Z,1016.85
2018-07-08T03:06:51.831Z,1016.86
2018-07-08T03:07:51.808Z,1016.88
2018-07-08T03:08:51.779Z,1016.93
2018-07-08T03:09:51.749Z,1016.87
2018-07-08T03:10:51.771Z,1016.90
2018-07-08T03:11:51.717Z,1016.87
2018-07-08T03:12:51.678Z,1016.91
2018-07-08T03:13:51.648Z,1016.89
2018-07-08T03:14:52.435Z,1016.85
2018-07-08T03:15:51.647Z,1016.85
2018-07-08T03:16:51.575Z,1016.84
2018-07-08T03:17:51.550Z,1016.83
2018-07-08T03:18:52.446Z,1016.86
2018-07-08T03:19:51.541Z,1016.88
2018-07-08T03:20:51.469Z,1016.86
2018-07-08T03:21:51.448Z,1016.90
2018-07-08T03:22:51.468Z,1016.93
2018-07-08T03:23:51.441Z,1016.92
2018-07-08T03:24:51.366Z,1016.87
2018-07-08T03:25:51.346Z,1016.86
2018-07-08T03:26:51.310Z,1016.88
2018-07-08T03:27:51.312Z,1016.88
2018-07-08T03:28:51.313Z,1016.90
2018-07-08T03:29:51.237Z,1016.89
2018-07-08T03:30:51.218Z,1016.94
2018-07-08T03:31:51.188Z,1016.96
2018-07-08T03:32:51.201Z,1016.96
2018-07-08T03:33:51.193Z,1016.95
2018-07-08T03:34:51.159Z,1016.97
2018-07-08T03:35:51.083Z,1016.98
2018-07-08T03:36:51.066Z,1016.98
2018-07-08T03:37:51.028Z,1017.04
2018-07-08T03:38:51.048Z,1016.96
2018-07-08T03:39:50.982Z,1016.96
2018-07-08T03:40:50.999Z,1016.95
2018-07-08T03:41:50.930Z,1016.95
2018-07-08T03:42:50.901Z,1016.92
2018-07-08T03:43:50.878Z,1016.93
2018-07-08T03:44:50.857Z,1016.93
2018-07-08T03:45:50.869Z,1016.93
2018-07-08T03:46:50.797Z,1016.95
2018-07-08T03:47:50.784Z,1016.94
2018-07-08T03:48:50.746Z,1016.93
2018-07-08T03:49:50.719Z,1016.97
2018-07-08T03:50:50.755Z,1016.92
2018-07-08T03:51:50.714Z,1016.95
2018-07-08T03:52:50.660Z,1016.96
2018-07-08T03:53:50.620Z,1016.95
2018-07-08T03:54:50.590Z,1016.94
2018-07-08T03:55:50.582Z,1016.95
2018-07-08T03:56:50.585Z,1016.94
2018-07-08T03:57:50.513Z,1016.95
2018-07-08T03:58:50.493Z,1016.95
2018-07-08T03:59:50.462Z,1016.99
2018-07-08T04:00:50.439Z,1017.00
2018-07-08T04:01:50.461Z,1016.94
2018-07-08T04:02:50.384Z,1017.01
2018-07-08T04:03:50.371Z,1017.00
2018-07-08T04:04:50.339Z,1017.00
2018-07-08T04:05:50.360Z,1017.01
2018-07-08T04:06:50.280Z,1017.05
2018-07-08T04:07:50.304Z,1017.02
2018-07-08T04:08:50.230Z,1017.02
2018-07-08T04:09:50.212Z,1017.03
2018-07-08T04:10:50.180Z,1017.04
2018-07-08T04:11:50.202Z,1017.04
2018-07-08T04:12:50.140Z,1017.03
2018-07-08T04:13:50.101Z,1017.07
2018-07-08T04:14:50.087Z,1017.05
2018-07-08T04:15:50.053Z,1017.06
2018-07-08T04:16:50.072Z,1017.07
2018-07-08T04:17:50.019Z,1017.08
2018-07-08T04:18:49.986Z,1017.09
2018-07-08T04:19:49.951Z,1017.11
2018-07-08T04:20:49.934Z,1017.13
2018-07-08T04:21:49.945Z,1017.13
2018-07-08T04:22:49.877Z,1017.09
2018-07-08T04:23:49.848Z,1017.12
2018-07-08T04:24:49.826Z,1017.09
2018-07-08T04:25:49.799Z,1017.12
2018-07-08T04:26:49.829Z,1017.14
2018-07-08T04:27:49.792Z,1017.15
2018-07-08T04:28:49.727Z,1017.14
2018-07-08T04:29:49.697Z,1017.15
2018-07-08T04:30:49.677Z,1017.14
2018-07-08T04:31:49.693Z,1017.14
2018-07-08T04:32:49.621Z,1017.13
2018-07-08T04:33:49.656Z,1017.12
2018-07-08T04:34:49.571Z,1017.07
2018-07-08T04:35:49.548Z,1017.15
2018-07-08T04:36:49.525Z,1017.15
2018-07-08T04:37:49.539Z,1017.15
2018-07-08T04:38:49.485Z,1017.20
2018-07-08T04:39:49.448Z,1017.21
2018-07-08T04:40:49.466Z,1017.22
2018-07-08T04:41:49.394Z,1017.20
2018-07-08T04:42:49.372Z,1017.19
2018-07-08T04:43:49.359Z,1017.21
2018-07-08T04:44:49.322Z,1017.20
2018-07-08T04:45:49.340Z,1017.26
2018-07-08T04:46:49.277Z,1017.23
2018-07-08T04:47:49.250Z,1017.27
2018-07-08T04:48:49.241Z,1017.23
2018-07-08T04:49:49.950Z,1017.25
2018-07-08T04:50:49.217Z,1017.26
2018-07-08T04:51:49.149Z,1017.27
2018-07-08T04:52:49.125Z,1017.29
2018-07-08T04:53:49.097Z,1017.28
2018-07-08T04:54:49.129Z,1017.31
2018-07-08T04:55:49.051Z,1017.27
2018-07-08T04:56:49.025Z,1017.31
2018-07-08T04:57:49.058Z,1017.33
2018-07-08T04:58:48.982Z,1017.31
2018-07-08T04:59:48.961Z,1017.31
2018-07-08T05:00:48.985Z,1017.33
2018-07-08T05:01:48.910Z,1017.34
2018-07-08T05:02:48.886Z,1017.35
2018-07-08T05:03:48.902Z,1017.37
2018-07-08T05:04:48.847Z,1017.37
2018-07-08T05:05:48.863Z,1017.37
2018-07-08T05:06:48.833Z,1017.41
2018-07-08T05:07:48.766Z,1017.42
2018-07-08T05:08:48.736Z,1017.48
2018-07-08T05:09:48.720Z,1017.47
2018-07-08T05:10:48.692Z,1017.43
2018-07-08T05:11:48.710Z,1017.45
2018-07-08T05:12:49.464Z,1017.44
2018-07-08T05:13:48.634Z,1017.45
2018-07-08T05:14:48.597Z,1017.44
2018-07-08T05:15:48.572Z,1017.42
2018-07-08T05:16:48.591Z,1017.44
2018-07-08T05:17:48.535Z,1017.45
2018-07-08T05:18:48.494Z,1017.43
2018-07-08T05:19:48.470Z,1017.42
2018-07-08T05:20:48.451Z,1017.42
2018-07-08T05:21:48.467Z,1017.41
2018-07-08T05:22:48.443Z,1017.42
2018-07-08T05:23:48.375Z,1017.51
2018-07-08T05:24:48.352Z,1017.40
2018-07-08T05:25:48.327Z,1017.45
2018-07-08T05:26:48.352Z,1017.40
2018-07-08T05:27:48.279Z,1017.46
2018-07-08T05:28:48.305Z,1017.41
2018-07-08T05:29:48.239Z,1017.43
2018-07-08T05:30:48.217Z,1017.39
2018-07-08T05:31:48.187Z,1017.41
2018-07-08T05:32:48.210Z,1017.40
2018-07-08T05:33:48.144Z,1017.38
2018-07-08T05:34:48.116Z,1017.44
2018-07-08T05:35:48.203Z,1017.44
2018-07-08T05:36:48.067Z,1017.43
2018-07-08T05:37:48.056Z,1017.45
2018-07-08T05:38:48.064Z,1017.47
2018-07-08T05:39:47.999Z,1017.44
2018-07-08T05:40:48.016Z,1017.47
2018-07-08T05:41:47.949Z,1017.48
2018-07-08T05:42:47.932Z,1017.45
2018-07-08T05:43:47.962Z,1017.44
2018-07-08T05:44:47.887Z,1017.45
2018-07-08T05:45:47.869Z,1017.45
2018-07-08T05:46:47.834Z,1017.51
2018-07-08T05:47:47.816Z,1017.49
2018-07-08T05:48:49.516Z,1017.51
2018-07-08T05:49:47.769Z,1017.51
2018-07-08T05:50:47.782Z,1017.52
2018-07-08T05:51:47.736Z,1017.54
2018-07-08T05:52:47.698Z,1017.51
2018-07-08T05:53:47.678Z,1017.48
2018-07-08T05:54:47.653Z,1017.49
2018-07-08T05:55:47.697Z,1017.50
2018-07-08T05:56:47.624Z,1017.52
2018-07-08T05:57:47.581Z,1017.53
2018-07-08T05:58:47.609Z,1017.51
2018-07-08T05:59:47.537Z,1017.50
2018-07-08T06:00:47.513Z,1017.51
2018-07-08T06:01:47.493Z,1017.51
2018-07-08T06:02:47.471Z,1017.53
2018-07-08T06:03:47.541Z,1017.53
2018-07-08T06:04:47.422Z,1017.58
2018-07-08T06:05:47.533Z,1017.58
2018-07-08T06:06:47.373Z,1017.54
2018-07-08T06:07:47.351Z,1017.57
2018-07-08T06:08:47.331Z,1017.60
2018-07-08T06:09:47.302Z,1017.62
2018-07-08T06:10:47.337Z,1017.67
2018-07-08T06:11:47.262Z,1017.62
2018-07-08T06:12:47.233Z,1017.62
2018-07-08T06:13:47.227Z,1017.59
2018-07-08T06:14:47.186Z,1017.64
2018-07-08T06:15:47.207Z,1017.64
2018-07-08T06:16:47.240Z,1017.63
2018-07-08T06:17:47.116Z,1017.65
2018-07-08T06:18:47.096Z,1017.61
2018-07-08T06:19:47.072Z,1017.57
2018-07-08T06:20:47.092Z,1017.55
2018-07-08T06:21:47.091Z,1017.55
2018-07-08T06:22:47.001Z,1017.57
2018-07-08T06:23:46.985Z,1017.56
2018-07-08T06:24:46.956Z,1017.56
2018-07-08T06:25:46.938Z,1017.56
2018-07-08T06:26:46.963Z,1017.55
2018-07-08T06:27:46.904Z,1017.53
2018-07-08T06:28:46.873Z,1017.54
2018-07-08T06:29:46.841Z,1017.55
2018-07-08T06:30:46.821Z,1017.54
2018-07-08T06:31:46.901Z,1017.56
2018-07-08T06:32:46.782Z,1017.62
2018-07-08T06:33:46.752Z,1017.60
2018-07-08T06:34:46.729Z,1017.56
2018-07-08T06:35:46.717Z,1017.63
2018-07-08T06:36:46.732Z,1017.63
2018-07-08T06:37:46.705Z,1017.66
2018-07-08T06:38:46.641Z,1017.66
2018-07-08T06:39:46.642Z,1017.67
2018-07-08T06:40:46.596Z,1017.69
2018-07-08T06:41:46.569Z,1017.68
2018-07-08T06:42:46.604Z,1017.66
2018-07-08T06:43:46.524Z,1017.63
2018-07-08T06:44:46.499Z,1017.67
2018-07-08T06:45:46.476Z,1017.65
2018-07-08T06:46:46.456Z,1017.64
2018-07-08T06:47:46.480Z,1017.62
2018-07-08T06:48:46.410Z,1017.65
2018-07-08T06:49:46.387Z,1017.64
2018-07-08T06:50:46.367Z,1017.66
2018-07-08T06:51:46.341Z,1017.61
2018-07-08T06:52:46.372Z,1017.69
2018-07-08T06:53:46.294Z,1017.65
2018-07-08T06:54:46.291Z,1017.73
2018-07-08T06:55:46.301Z,1017.77
2018-07-08T06:56:46.241Z,1017.80
2018-07-08T06:57:46.215Z,1017.76
2018-07-08T06:58:46.192Z,1017.71
2018-07-08T06:59:46.228Z,1017.74
2018-07-08T07:00:46.182Z,1017.74
2018-07-08T07:01:46.115Z,1017.73
2018-07-08T07:02:46.140Z,1017.71
2018-07-08T07:03:46.073Z,1017.75
2018-07-08T07:04:46.224Z,1017.76
2018-07-08T07:05:46.028Z,1017.78
2018-07-08T07:06:46.087Z,1017.73
2018-07-08T07:07:45.986Z,1017.77
2018-07-08T07:08:45.960Z,1017.76
2018-07-08T07:09:45.941Z,1017.79
2018-07-08T07:10:45.960Z,1017.80
2018-07-08T07:11:45.942Z,1017.79
2018-07-08T07:12:45.884Z,1017.77
2018-07-08T07:13:45.855Z,1017.78
2018-07-08T07:14:45.827Z,1017.76
2018-07-08T07:15:45.863Z,1017.75
2018-07-08T07:16:45.829Z,1017.73
2018-07-08T07:17:45.762Z,1017.74
2018-07-08T07:18:45.743Z,1017.76
2018-07-08T07:19:45.724Z,1017.82
2018-07-08T07:20:45.740Z,1017.81
2018-07-08T07:21:45.674Z,1017.80
2018-07-08T07:22:45.698Z,1017.82
2018-07-08T07:23:45.628Z,1017.81
2018-07-08T07:24:45.614Z,1017.79
2018-07-08T07:25:45.588Z,1017.85
2018-07-08T07:26:45.609Z,1017.76
2018-07-08T07:27:45.541Z,1017.80
2018-07-08T07:28:45.521Z,1017.77
2018-07-08T07:29:45.549Z,1017.78
2018-07-08T07:30:45.474Z,1017.76
2018-07-08T07:31:45.511Z,1017.83
2018-07-08T07:32:45.480Z,1017.79
2018-07-08T07:33:45.422Z,1017.90
2018-07-08T07:34:45.387Z,1017.82
2018-07-08T07:35:45.368Z,1017.80
2018-07-08T07:36:45.344Z,1017.77
2018-07-08T07:37:45.375Z,1017.80
2018-07-08T07:38:45.306Z,1017.80
2018-07-08T07:39:45.278Z,1017.75
2018-07-08T07:40:45.326Z,1017.82
2018-07-08T07:41:45.275Z,1017.79
2018-07-08T07:42:45.258Z,1017.76
2018-07-08T07:43:45.196Z,1017.80
2018-07-08T07:44:45.169Z,1017.80
2018-07-08T07:45:45.154Z,1017.78
2018-07-08T07:46:45.172Z,1017.77
2018-07-08T07:47:45.160Z,1017.73
2018-07-08T07:48:45.082Z,1017.79
2018-07-08T07:49:45.076Z,1017.78
2018-07-08T07:50:45.039Z,1017.80
2018-07-08T07:51:45.087Z,1017.80
2018-07-08T07:52:45.011Z,1017.80
2018-07-08T07:53:45.000Z,1017.78
2018-07-08T07:54:44.956Z,1017.83
2018-07-08T07:55:44.931Z,1017.81
2018-07-08T07:56:44.971Z,1017.85
2018-07-08T07:57:44.890Z,1017.84
2018-07-08T07:58:44.898Z,1017.87
2018-07-08T07:59:44.848Z,1017.86
2018-07-08T08:00:44.847Z,1017.81
2018-07-08T08:01:44.857Z,1017.83
2018-07-08T08:02:44.831Z,1017.82
2018-07-08T08:03:44.767Z,1017.81
2018-07-08T08:04:44.765Z,1017.86
2018-07-08T08:05:44.724Z,1017.84
2018-07-08T08:06:44.708Z,1017.84
2018-07-08T08:07:44.728Z,1017.87
2018-07-08T08:08:44.701Z,1017.85
2018-07-08T08:09:44.638Z,1017.85
2018-07-08T08:10:44.689Z,1017.96
2018-07-08T08:11:44.646Z,1017.91
2018-07-08T08:12:44.634Z,1017.97
2018-07-08T08:13:44.606Z,1017.94
2018-07-08T08:14:44.537Z,1017.94
2018-07-08T08:15:44.521Z,1017.94
2018-07-08T08:16:44.497Z,1017.96
2018-07-08T08:17:44.519Z,1017.98
2018-07-08T08:18:44.458Z,1017.97
2018-07-08T08:19:44.430Z,1017.97
2018-07-08T08:20:44.418Z,1018.00
2018-07-08T08:21:44.389Z,1017.99
2018-07-08T08:22:44.407Z,1017.99
2018-07-08T08:23:44.401Z,1017.97
2018-07-08T08:24:44.358Z,1017.97
2018-07-08T08:25:44.307Z,1017.96
2018-07-08T08:26:44.342Z,1017.96
2018-07-08T08:27:44.262Z,1017.99
2018-07-08T08:28:44.296Z,1017.99
2018-07-08T08:29:44.228Z,1017.96
2018-07-08T08:30:44.203Z,1017.98
2018-07-08T08:31:44.183Z,1017.99
2018-07-08T08:32:44.179Z,1017.98
2018-07-08T08:33:44.178Z,1017.97
2018-07-08T08:34:44.173Z,1017.97
2018-07-08T08:35:44.108Z,1017.97
2018-07-08T08:36:44.082Z,1018.00
2018-07-08T08:37:44.067Z,1017.97
2018-07-08T08:38:44.038Z,1018.00
2018-07-08T08:39:44.074Z,1017.97
2018-07-08T08:40:43.998Z,1017.98
2018-07-08T08:41:43.984Z,1017.97
2018-07-08T08:42:43.957Z,1017.98
2018-07-08T08:43:43.931Z,1017.96
2018-07-08T08:44:43.973Z,1017.96
2018-07-08T08:45:43.893Z,1017.98
2018-07-08T08:46:43.876Z,1017.95
2018-07-08T08:47:43.851Z,1017.97
2018-07-08T08:48:43.831Z,1018.01
2018-07-08T08:49:43.855Z,1018.05
2018-07-08T08:50:43.839Z,1017.96
2018-07-08T08:51:43.770Z,1018.01
2018-07-08T08:52:43.766Z,1018.08
2018-07-08T08:53:43.728Z,1018.09
2018-07-08T08:54:43.716Z,1018.09
2018-07-08T08:55:43.734Z,1018.05
2018-07-08T08:56:43.688Z,1018.06
2018-07-08T08:57:43.648Z,1018.09
2018-07-08T08:58:43.634Z,1018.06
2018-07-08T08:59:43.614Z,1018.00
2018-07-08T09:00:43.628Z,1018.03
2018-07-08T09:01:43.627Z,1018.08
2018-07-08T09:02:43.553Z,1018.05
2018-07-08T09:03:43.554Z,1017.99
2018-07-08T09:04:43.505Z,1018.01
2018-07-08T09:05:43.547Z,1018.03
2018-07-08T09:06:43.492Z,1018.02
2018-07-08T09:07:43.449Z,1017.99
2018-07-08T09:08:43.431Z,1018.04
2018-07-08T09:09:43.451Z,1018.04
2018-07-08T09:10:43.496Z,1018.04
2018-07-08T09:11:43.369Z,1018.06
2018-07-08T09:12:43.352Z,1018.04
2018-07-08T09:13:43.324Z,1018.05
2018-07-08T09:14:43.308Z,1018.00
2018-07-08T09:15:43.334Z,1018.04
2018-07-08T09:16:43.267Z,1018.05
2018-07-08T09:17:43.247Z,1018.07
2018-07-08T09:18:43.234Z,1018.08
2018-07-08T09:19:43.217Z,1018.11
2018-07-08T09:20:43.268Z,1018.16
2018-07-08T09:21:43.188Z,1018.13
2018-07-08T09:22:43.156Z,1018.13
2018-07-08T09:23:43.174Z,1018.11
2018-07-08T09:24:43.168Z,1018.09
2018-07-08T09:25:43.151Z,1018.12
2018-07-08T09:26:43.080Z,1018.10
2018-07-08T09:27:43.059Z,1018.14
2018-07-08T09:28:43.041Z,1018.11
2018-07-08T09:29:43.023Z,1018.17
2018-07-08T09:30:43.059Z,1018.10
2018-07-08T09:31:42.982Z,1018.11
2018-07-08T09:32:42.973Z,1018.11
2018-07-08T09:33:42.948Z,1018.10
2018-07-08T09:34:42.947Z,1018.12
2018-07-08T09:35:42.955Z,1018.10
2018-07-08T09:36:42.895Z,1018.12
2018-07-08T09:37:42.873Z,1018.05
2018-07-08T09:38:42.911Z,1018.03
2018-07-08T09:39:42.838Z,1018.08
2018-07-08T09:40:43.434Z,1018.04
2018-07-08T09:41:42.799Z,1018.13
2018-07-08T09:42:42.780Z,1018.09
2018-07-08T09:43:42.761Z,1018.03
2018-07-08T09:44:42.748Z,1018.07
2018-07-08T09:45:42.772Z,1018.14
2018-07-08T09:46:42.705Z,1018.03
2018-07-08T09:47:42.687Z,1018.13
2018-07-08T09:48:42.685Z,1018.10
2018-07-08T09:49:42.651Z,1018.08
2018-07-08T09:50:43.096Z,1018.13
2018-07-08T09:51:42.612Z,1018.15
2018-07-08T09:52:42.666Z,1018.07
2018-07-08T09:53:42.575Z,1018.08
2018-07-08T09:54:42.559Z,1018.08
2018-07-08T09:55:42.575Z,1018.06
2018-07-08T09:56:42.516Z,1018.05
2018-07-08T09:57:42.537Z,1018.06
2018-07-08T09:58:42.523Z,1018.04
2018-07-08T09:59:42.462Z,1018.01
2018-07-08T10:00:43.033Z,1018.03
2018-07-08T10:01:42.423Z,1018.07
2018-07-08T10:02:42.476Z,1018.02
2018-07-08T10:03:42.381Z,1018.05
2018-07-08T10:04:42.485Z,1018.06
2018-07-08T10:05:42.344Z,1018.03
2018-07-08T10:06:42.326Z,1017.98
2018-07-08T10:07:42.353Z,1018.03
2018-07-08T10:08:42.401Z,1018.02
2018-07-08T10:09:42.312Z,1017.98
2018-07-08T10:10:42.295Z,1017.95
2018-07-08T10:11:43.047Z,1017.92
2018-07-08T10:12:42.236Z,1017.89
2018-07-08T10:13:42.326Z,1017.91
2018-07-08T10:14:42.219Z,1017.93
2018-07-08T10:15:42.160Z,1017.95
2018-07-08T10:16:42.254Z,1017.95
2018-07-08T10:17:42.171Z,1017.90
2018-07-08T10:18:42.095Z,1017.92
2018-07-08T10:19:42.192Z,1017.94
2018-07-08T10:20:42.126Z,1017.94
2018-07-08T10:21:42.031Z,1017.89
2018-07-08T10:22:42.067Z,1017.83
2018-07-08T10:23:41.992Z,1017.83
2018-07-08T10:24:41.971Z,1017.78
2018-07-08T10:25:41.957Z,1017.85
2018-07-08T10:26:41.941Z,1017.83
2018-07-08T10:27:41.967Z,1017.84
2018-07-08T10:28:41.892Z,1017.83
2018-07-08T10:29:41.881Z,1017.87
2018-07-08T10:30:41.856Z,1017.84
2018-07-08T10:31:41.839Z,1017.80
2018-07-08T10:32:41.880Z,1017.82
2018-07-08T10:33:41.789Z,1017.81
2018-07-08T10:34:41.772Z,1017.79
2018-07-08T10:35:41.752Z,1017.85
2018-07-08T10:36:41.737Z,1017.84
2018-07-08T10:37:41.778Z,1017.80
2018-07-08T10:38:41.693Z,1017.82
2018-07-08T10:39:41.677Z,1017.81
2018-07-08T10:40:41.652Z,1017.84
2018-07-08T10:41:41.638Z,1017.83
2018-07-08T10:42:41.661Z,1017.78
2018-07-08T10:43:41.642Z,1017.81
2018-07-08T10:44:41.573Z,1017.75
2018-07-08T10:45:41.556Z,1017.71
2018-07-08T10:46:41.531Z,1017.71
2018-07-08T10:47:41.516Z,1017.72
2018-07-08T10:48:41.538Z,1017.79
2018-07-08T10:49:41.471Z,1017.80
2018-07-08T10:50:41.456Z,1017.76
2018-07-08T10:51:41.432Z,1017.68
2018-07-08T10:52:41.415Z,1017.72
2018-07-08T10:53:41.440Z,1017.73
2018-07-08T10:54:41.421Z,1017.75
2018-07-08T10:55:41.355Z,1017.70
2018-07-08T10:56:41.355Z,1017.66
2018-07-08T10:57:41.316Z,1017.66
2018-07-08T10:58:41.302Z,1017.68
2018-07-08T10:59:41.323Z,1017.73
2018-07-08T11:00:41.263Z,1017.72
2018-07-08T11:01:41.289Z,1017.72
2018-07-08T11:02:41.229Z,1017.68
2018-07-08T11:03:41.197Z,1017.71
2018-07-08T11:04:41.225Z,1017.72
2018-07-08T11:05:41.206Z,1017.80
2018-07-08T11:06:41.156Z,1017.73
2018-07-08T11:07:41.131Z,1017.72
2018-07-08T11:08:41.125Z,1017.73
2018-07-08T11:09:41.084Z,1017.65
2018-07-08T11:10:41.170Z,1017.65
2018-07-08T11:11:41.046Z,1017.66
2018-07-08T11:12:41.033Z,1017.68
2018-07-08T11:13:41.021Z,1017.67
2018-07-08T11:14:41.001Z,1017.62
2018-07-08T11:15:41.025Z,1017.62
2018-07-08T11:16:40.976Z,1017.61
2018-07-08T11:17:40.936Z,1017.60
2018-07-08T11:18:40.932Z,1017.53
2018-07-08T11:19:40.901Z,1017.54
2018-07-08T11:20:41.019Z,1017.56
2018-07-08T11:21:40.865Z,1017.59
2018-07-08T11:22:40.851Z,1017.60
2018-07-08T11:23:40.830Z,1017.56
2018-07-08T11:24:40.817Z,1017.51
2018-07-08T11:25:40.848Z,1017.52
2018-07-08T11:26:40.817Z,1017.56
2018-07-08T11:27:40.756Z,1017.52
2018-07-08T11:28:40.797Z,1017.58
2018-07-08T11:29:40.725Z,1017.51
2018-07-08T11:30:40.701Z,1017.50
2018-07-08T11:31:40.729Z,1017.49
2018-07-08T11:32:40.679Z,1017.44
2018-07-08T11:33:40.646Z,1017.48
2018-07-08T11:34:40.633Z,1017.48
2018-07-08T11:35:40.660Z,1017.43
2018-07-08T11:36:40.654Z,1017.45
2018-07-08T11:37:40.577Z,1017.44
2018-07-08T11:38:40.557Z,1017.42
2018-07-08T11:39:40.544Z,1017.46
2018-07-08T11:40:40.526Z,1017.44
2018-07-08T11:41:40.567Z,1017.39
2018-07-08T11:42:40.488Z,1017.38
2018-07-08T11:43:40.512Z,1017.53
2018-07-08T11:44:40.451Z,1017.44
2018-07-08T11:45:40.437Z,1017.35
2018-07-08T11:46:40.412Z,1017.37
2018-07-08T11:47:40.396Z,1017.35
2018-07-08T11:48:40.422Z,1017.31
2018-07-08T11:49:40.359Z,1017.32
2018-07-08T11:50:40.413Z,1017.36
2018-07-08T11:51:41.078Z,1017.34
2018-07-08T11:52:40.307Z,1017.33
2018-07-08T11:53:40.291Z,1017.33
2018-07-08T11:54:40.281Z,1017.31
2018-07-08T11:55:40.270Z,1017.29
2018-07-08T11:56:40.283Z,1017.29
2018-07-08T11:57:40.230Z,1017.30
2018-07-08T11:58:40.203Z,1017.32
2018-07-08T11:59:40.193Z,1017.32
2018-07-08T12:00:40.172Z,1017.36
2018-07-08T12:01:40.201Z,1017.34
2018-07-08T12:02:40.132Z,1017.33
2018-07-08T12:03:40.117Z,1017.34
2018-07-08T12:04:40.099Z,1017.36
2018-07-08T12:05:40.093Z,1017.28